Time,TemperatureF,DewpointF,PressureIn,WindDirection,WindDirectionDegrees,WindSpeedMPH,WindSpeedGustMPH,Humidity,HourlyPrecipIn,Conditions,Clouds,dailyrainin,SoftwareType,DateUTC
2013-05-06 00:00:00,46.8,42.2,30.21,SE,134,0.0,0.0,84,0.00,,,0.00,Wunderground v.1.13,2013-05-06 04:00:00,
2013-05-06 00:05:00,46.7,42.1,30.21,East,92,0.0,0.0,84,0.00,,,0.00,Wunderground v.1.13,2013-05-06 04:05:00,
2013-05-06 00:10:00,46.5,41.9,30.21,East,92,0.0,0.0,84,0.00,,,0.00,Wunderground v.1.13,2013-05-06 04:10:00,
2013-05-06 00:15:00,46.5,41.9,30.21,East,92,0.0,0.0,84,0.00,,,0.00,Wunderground v.1.13,2013-05-06 04:15:00,
2013-05-06 00:20:00,46.4,41.8,30.21,East,92,0.0,0.0,84,0.00,,,0.00,Wunderground v.1.13,2013-05-06 04:20:00,
2013-05-06 00:25:00,46.2,41.6,30.21,East,92,0.0,0.0,84,0.00,,,0.00,Wunderground v.1.13,2013-05-06 04:25:00,
2013-05-06 00:30:00,46.1,41.5,30.21,East,92,0.0,0.0,84,0.00,,,0.00,Wunderground v.1.13,2013-05-06 04:30:00,
2013-05-06 00:35:00,46.0,41.4,30.21,East,92,0.0,0.0,84,0.00,,,0.00,Wunderground v.1.13,2013-05-06 04:35:00,
2013-05-06 00:45:00,45.7,41.4,30.21,East,92,0.0,0.0,85,0.00,,,0.00,Wunderground v.1.13,2013-05-06 04:45:00,
2013-05-06 00:50:00,45.5,41.3,30.20,East,92,0.0,0.0,85,0.00,,,0.00,Wunderground v.1.13,2013-05-06 04:50:00,
2013-05-06 00:55:00,45.4,41.2,30.20,East,92,0.0,0.0,85,0.00,,,0.00,Wunderground v.1.13,2013-05-06 04:55:00,
2013-05-06 01:05:00,45.1,41.2,30.21,East,92,0.0,0.0,86,0.00,,,0.00,Wunderground v.1.13,2013-05-06 05:05:00,
2013-05-06 01:10:00,44.6,40.7,30.21,East,92,0.0,0.0,86,0.00,,,0.00,Wunderground v.1.13,2013-05-06 05:10:00,
2013-05-06 01:15:00,44.1,40.2,30.20,East,92,0.0,0.0,86,0.00,,,0.00,Wunderground v.1.13,2013-05-06 05:15:00,
2013-05-06 01:25:00,43.5,39.9,30.20,East,92,0.0,0.0,87,0.00,,,0.00,Wunderground v.1.13,2013-05-06 05:25:00,
2013-05-06 01:30:00,43.2,39.6,30.20,East,92,0.0,0.0,87,0.00,,,0.00,Wunderground v.1.13,2013-05-06 05:30:00,
2013-05-06 01:35:00,43.1,39.8,30.20,East,92,0.0,0.0,88,0.00,,,0.00,Wunderground v.1.13,2013-05-06 05:35:00,
2013-05-06 01:45:00,42.9,39.9,30.20,East,92,0.0,0.0,89,0.00,,,0.00,Wunderground v.1.13,2013-05-06 05:45:00,
2013-05-06 01:50:00,42.8,39.8,30.20,East,92,0.0,0.0,89,0.00,,,0.00,Wunderground v.1.13,2013-05-06 05:50:00,
2013-05-06 01:55:00,42.6,39.6,30.20,East,92,0.0,0.0,89,0.00,,,0.00,Wunderground v.1.13,2013-05-06 05:55:00,
2013-05-06 02:00:00,42.3,39.3,30.20,East,92,0.0,0.0,89,0.00,,,0.00,Wunderground v.1.13,2013-05-06 06:00:00,
2013-05-06 02:10:00,41.9,39.2,30.20,East,92,0.0,0.0,90,0.00,,,0.00,Wunderground v.1.13,2013-05-06 06:10:00,
2013-05-06 02:15:00,41.8,39.1,30.20,East,92,0.0,0.0,90,0.00,,,0.00,Wunderground v.1.13,2013-05-06 06:15:00,
2013-05-06 02:20:00,41.6,38.9,30.20,East,92,0.0,0.0,90,0.00,,,0.00,Wunderground v.1.13,2013-05-06 06:20:00,
2013-05-06 02:25:00,41.6,38.9,30.20,East,92,0.0,0.0,90,0.00,,,0.00,Wunderground v.1.13,2013-05-06 06:25:00,
2013-05-06 02:35:00,41.3,38.9,30.19,East,92,0.0,0.0,91,0.00,,,0.00,Wunderground v.1.13,2013-05-06 06:35:00,
2013-05-06 02:40:00,41.2,38.8,30.19,East,92,0.0,0.0,91,0.00,,,0.00,Wunderground v.1.13,2013-05-06 06:40:00,
2013-05-06 02:45:00,41.2,38.8,30.19,East,92,0.0,0.0,91,0.00,,,0.00,Wunderground v.1.13,2013-05-06 06:45:00,
2013-05-06 02:55:00,41.1,39.0,30.19,East,92,0.0,0.0,92,0.00,,,0.00,Wunderground v.1.13,2013-05-06 06:55:00,
2013-05-06 03:00:00,41.2,39.1,30.18,East,92,0.0,0.0,92,0.00,,,0.00,Wunderground v.1.13,2013-05-06 07:00:00,
2013-05-06 03:05:00,41.3,39.2,30.18,East,92,0.0,0.0,92,0.00,,,0.00,Wunderground v.1.13,2013-05-06 07:05:00,
2013-05-06 03:10:00,41.2,39.1,30.18,East,92,0.0,0.0,92,0.00,,,0.00,Wunderground v.1.13,2013-05-06 07:10:00,
2013-05-06 03:15:00,40.9,38.8,30.18,East,92,0.0,0.0,92,0.00,,,0.00,Wunderground v.1.13,2013-05-06 07:15:00,
2013-05-06 03:25:00,40.8,38.7,30.18,East,92,0.0,0.0,92,0.00,,,0.00,Wunderground v.1.13,2013-05-06 07:25:00,
2013-05-06 03:30:00,40.9,38.8,30.18,East,92,0.0,0.0,92,0.00,,,0.00,Wunderground v.1.13,2013-05-06 07:30:00,
2013-05-06 03:35:00,41.1,39.0,30.18,East,92,0.0,0.0,92,0.00,,,0.00,Wunderground v.1.13,2013-05-06 07:35:00,
2013-05-06 03:40:00,41.2,39.1,30.18,East,92,0.0,0.0,92,0.00,,,0.00,Wunderground v.1.13,2013-05-06 07:40:00,
2013-05-06 03:45:00,41.2,39.1,30.19,East,92,0.0,0.0,92,0.00,,,0.00,Wunderground v.1.13,2013-05-06 07:45:00,
2013-05-06 03:55:00,41.5,39.3,30.19,North,359,0.0,0.0,92,0.00,,,0.00,Wunderground v.1.13,2013-05-06 07:55:00,
2013-05-06 04:00:00,41.5,39.3,30.18,North,359,0.0,0.0,92,0.00,,,0.00,Wunderground v.1.13,2013-05-06 08:00:00,
2013-05-06 04:10:00,41.8,39.6,30.18,North,359,0.0,0.0,92,0.00,,,0.00,Wunderground v.1.13,2013-05-06 08:10:00,
2013-05-06 04:15:00,42.1,40.2,30.19,North,359,0.0,0.0,93,0.00,,,0.00,Wunderground v.1.13,2013-05-06 08:15:00,
2013-05-06 04:20:00,42.3,40.1,30.19,North,359,0.0,0.0,92,0.00,,,0.00,Wunderground v.1.13,2013-05-06 08:20:00,
2013-05-06 04:30:00,42.5,40.3,30.19,North,359,0.0,0.0,92,0.00,,,0.00,Wunderground v.1.13,2013-05-06 08:30:00,
2013-05-06 04:40:00,42.8,40.6,30.19,North,359,0.0,0.0,92,0.00,,,0.00,Wunderground v.1.13,2013-05-06 08:40:00,
2013-05-06 04:45:00,42.9,40.7,30.19,North,359,0.0,0.0,92,0.00,,,0.00,Wunderground v.1.13,2013-05-06 08:45:00,
2013-05-06 04:50:00,43.1,40.9,30.19,North,359,0.0,0.0,92,0.00,,,0.00,Wunderground v.1.13,2013-05-06 08:50:00,
2013-05-06 04:55:00,43.6,41.4,30.19,North,359,0.0,0.0,92,0.00,,,0.00,Wunderground v.1.13,2013-05-06 08:55:00,
2013-05-06 05:00:00,43.8,41.6,30.20,North,359,0.0,0.0,92,0.00,,,0.00,Wunderground v.1.13,2013-05-06 09:00:00,
2013-05-06 05:10:00,44.5,42.3,30.20,North,359,0.0,1.0,92,0.00,,,0.00,Wunderground v.1.13,2013-05-06 09:10:00,
2013-05-06 05:15:00,44.6,42.4,30.20,North,359,0.0,0.0,92,0.00,,,0.00,Wunderground v.1.13,2013-05-06 09:15:00,
2013-05-06 05:20:00,44.9,42.4,30.20,North,359,0.0,0.0,91,0.00,,,0.00,Wunderground v.1.13,2013-05-06 09:20:00,
2013-05-06 05:30:00,45.2,42.7,30.20,North,359,0.0,0.0,91,0.00,,,0.00,Wunderground v.1.13,2013-05-06 09:30:00,
2013-05-06 05:35:00,45.4,42.9,30.20,North,359,0.0,0.0,91,0.00,,,0.00,Wunderground v.1.13,2013-05-06 09:35:00,
2013-05-06 05:40:00,45.5,43.0,30.20,North,359,0.0,0.0,91,0.00,,,0.00,Wunderground v.1.13,2013-05-06 09:40:00,
2013-05-06 05:50:00,45.7,43.2,30.20,North,357,0.0,0.0,91,0.00,,,0.00,Wunderground v.1.13,2013-05-06 09:50:00,
2013-05-06 05:55:00,45.7,43.2,30.20,North,359,0.0,0.0,91,0.00,,,0.00,Wunderground v.1.13,2013-05-06 09:55:00,
2013-05-06 06:00:00,45.8,43.3,30.20,North,359,0.0,2.0,91,0.00,,,0.00,Wunderground v.1.13,2013-05-06 10:00:00,
2013-05-06 06:10:00,45.8,43.3,30.20,NE,47,0.0,1.0,91,0.00,,,0.00,Wunderground v.1.13,2013-05-06 10:10:00,
2013-05-06 06:15:00,46.0,43.5,30.21,NE,47,0.0,0.0,91,0.00,,,0.00,Wunderground v.1.13,2013-05-06 10:15:00,
2013-05-06 06:20:00,46.0,43.5,30.21,NE,47,0.0,0.0,91,0.00,,,0.00,Wunderground v.1.13,2013-05-06 10:20:00,
2013-05-06 06:30:00,46.0,43.5,30.21,NNE,14,0.0,2.0,91,0.00,,,0.00,Wunderground v.1.13,2013-05-06 10:30:00,
2013-05-06 06:35:00,46.0,43.5,30.21,NNE,14,0.0,0.0,91,0.00,,,0.00,Wunderground v.1.13,2013-05-06 10:35:00,
2013-05-06 06:40:00,46.0,43.5,30.21,NNE,14,0.0,1.0,91,0.00,,,0.00,Wunderground v.1.13,2013-05-06 10:40:00,
2013-05-06 06:45:00,46.0,43.5,30.21,NNE,16,0.0,1.0,91,0.00,,,0.00,Wunderground v.1.13,2013-05-06 10:45:00,
2013-05-06 06:55:00,46.1,43.6,30.21,NNE,16,0.0,0.0,91,0.00,,,0.00,Wunderground v.1.13,2013-05-06 10:55:00,
2013-05-06 07:00:00,46.2,43.7,30.22,NNE,16,0.0,0.0,91,0.00,,,0.00,Wunderground v.1.13,2013-05-06 11:00:00,
2013-05-06 07:05:00,46.4,43.9,30.22,NNE,16,0.0,0.0,91,0.00,,,0.00,Wunderground v.1.13,2013-05-06 11:05:00,
2013-05-06 07:15:00,46.7,43.9,30.22,NNE,16,0.0,0.0,90,0.00,,,0.00,Wunderground v.1.13,2013-05-06 11:15:00,
2013-05-06 07:20:00,46.8,43.7,30.22,NNE,16,0.0,0.0,89,0.00,,,0.00,Wunderground v.1.13,2013-05-06 11:20:00,
2013-05-06 07:25:00,46.8,43.7,30.22,NNE,16,0.0,3.0,89,0.00,,,0.00,Wunderground v.1.13,2013-05-06 11:25:00,
2013-05-06 07:35:00,47.0,43.6,30.23,SE,140,1.0,1.0,88,0.00,,,0.00,Wunderground v.1.13,2013-05-06 11:35:00,
2013-05-06 07:40:00,47.1,43.7,30.23,NNE,32,0.0,0.0,88,0.00,,,0.00,Wunderground v.1.13,2013-05-06 11:40:00,
2013-05-06 07:45:00,47.1,43.7,30.23,NNE,32,1.0,1.0,88,0.00,,,0.00,Wunderground v.1.13,2013-05-06 11:45:00,
2013-05-06 07:55:00,47.4,44.0,30.23,NNE,32,0.0,1.0,88,0.00,,,0.00,Wunderground v.1.13,2013-05-06 11:55:00,
2013-05-06 08:00:00,47.6,44.2,30.23,NNE,32,0.0,0.0,88,0.00,,,0.00,Wunderground v.1.13,2013-05-06 12:00:00,
2013-05-06 08:05:00,47.9,44.2,30.23,NNE,32,0.0,0.0,87,0.00,,,0.00,Wunderground v.1.13,2013-05-06 12:05:00,
2013-05-06 08:10:00,47.9,44.2,30.23,NNE,32,0.0,0.0,87,0.00,,,0.00,Wunderground v.1.13,2013-05-06 12:10:00,
2013-05-06 08:20:00,48.0,44.0,30.23,NNE,32,0.0,0.0,86,0.00,,,0.00,Wunderground v.1.13,2013-05-06 12:20:00,
2013-05-06 08:25:00,48.3,44.3,30.23,NNE,32,0.0,0.0,86,0.00,,,0.00,Wunderground v.1.13,2013-05-06 12:25:00,
2013-05-06 08:35:00,48.9,44.6,30.23,NNE,32,1.0,1.0,85,0.00,,,0.00,Wunderground v.1.13,2013-05-06 12:35:00,
2013-05-06 08:40:00,49.2,44.6,30.23,NNE,32,1.0,1.0,84,0.00,,,0.00,Wunderground v.1.13,2013-05-06 12:40:00,
2013-05-06 08:45:00,49.4,44.5,30.23,NNE,32,1.0,1.0,83,0.00,,,0.00,Wunderground v.1.13,2013-05-06 12:45:00,
2013-05-06 08:55:00,50.2,44.9,30.23,NNE,32,0.0,0.0,82,0.00,,,0.00,Wunderground v.1.13,2013-05-06 12:55:00,
2013-05-06 09:00:00,50.8,44.9,30.23,NNE,32,0.0,0.0,80,0.00,,,0.00,Wunderground v.1.13,2013-05-06 13:00:00,
2013-05-06 09:05:00,51.1,44.8,30.23,NNE,32,0.0,0.0,79,0.00,,,0.00,Wunderground v.1.13,2013-05-06 13:05:00,
2013-05-06 09:15:00,51.7,45.1,30.23,NNE,32,0.0,0.0,78,0.00,,,0.00,Wunderground v.1.13,2013-05-06 13:15:00,
2013-05-06 09:20:00,52.3,45.3,30.23,NNE,32,0.0,0.0,77,0.00,,,0.00,Wunderground v.1.13,2013-05-06 13:20:00,
2013-05-06 09:25:00,52.6,45.2,30.23,NNE,32,1.0,4.0,76,0.00,,,0.00,Wunderground v.1.13,2013-05-06 13:25:00,
2013-05-06 09:30:00,52.9,45.2,30.23,NNE,32,1.0,1.0,75,0.00,,,0.00,Wunderground v.1.13,2013-05-06 13:30:00,
2013-05-06 09:40:00,53.6,45.5,30.23,SSE,154,0.0,0.0,74,0.00,,,0.00,Wunderground v.1.13,2013-05-06 13:40:00,
2013-05-06 09:45:00,53.8,45.3,30.23,SSE,154,0.0,0.0,73,0.00,,,0.00,Wunderground v.1.13,2013-05-06 13:45:00,
2013-05-06 09:50:00,53.9,45.1,30.23,SSE,154,0.0,0.0,72,0.00,,,0.00,Wunderground v.1.13,2013-05-06 13:50:00,
2013-05-06 10:00:00,53.9,45.4,30.23,WSW,241,0.0,0.0,73,0.00,,,0.00,Wunderground v.1.13,2013-05-06 14:00:00,
2013-05-06 10:05:00,54.5,45.7,30.23,WSW,241,0.0,1.0,72,0.00,,,0.00,Wunderground v.1.13,2013-05-06 14:05:00,
2013-05-06 10:10:00,55.1,45.9,30.23,WSW,244,0.0,0.0,71,0.00,,,0.00,Wunderground v.1.13,2013-05-06 14:10:00,
2013-05-06 10:15:00,55.7,46.1,30.23,WSW,244,0.0,0.0,70,0.00,,,0.00,Wunderground v.1.13,2013-05-06 14:15:00,
2013-05-06 10:25:00,56.5,46.4,30.23,SSE,147,0.0,0.0,69,0.00,,,0.00,Wunderground v.1.13,2013-05-06 14:25:00,
2013-05-06 10:30:00,57.3,46.0,30.23,ESE,116,0.0,0.0,66,0.00,,,0.00,Wunderground v.1.13,2013-05-06 14:30:00,
2013-05-06 10:35:00,57.5,46.2,30.23,SW,234,1.0,1.0,66,0.00,,,0.00,Wunderground v.1.13,2013-05-06 14:35:00,
2013-05-06 10:45:00,57.6,46.3,30.23,SW,234,1.0,1.0,66,0.00,,,0.00,Wunderground v.1.13,2013-05-06 14:45:00,
2013-05-06 10:50:00,58.0,46.3,30.22,SW,234,0.0,0.0,65,0.00,,,0.00,Wunderground v.1.13,2013-05-06 14:50:00,
2013-05-06 10:55:00,58.6,46.5,30.22,SE,144,1.0,1.0,64,0.00,,,0.00,Wunderground v.1.13,2013-05-06 14:55:00,
2013-05-06 11:00:00,58.7,46.5,30.22,SSE,165,1.0,1.0,64,0.00,,,0.00,Wunderground v.1.13,2013-05-06 15:00:00,
2013-05-06 11:10:00,59.3,46.3,30.22,SW,236,0.0,0.0,62,0.00,,,0.00,Wunderground v.1.13,2013-05-06 15:10:00,
2013-05-06 11:15:00,60.4,46.9,30.22,SSW,205,0.0,0.0,61,0.00,,,0.00,Wunderground v.1.13,2013-05-06 15:15:00,
2013-05-06 11:25:00,61.5,47.9,30.22,SSE,157,1.0,1.0,61,0.00,,,0.00,Wunderground v.1.13,2013-05-06 15:25:00,
2013-05-06 11:30:00,62.0,47.0,30.22,SSE,157,0.0,0.0,58,0.00,,,0.00,Wunderground v.1.13,2013-05-06 15:30:00,
2013-05-06 11:35:00,62.6,47.6,30.21,SE,138,0.0,2.0,58,0.00,,,0.00,Wunderground v.1.13,2013-05-06 15:35:00,
2013-05-06 11:40:00,63.4,47.4,30.21,SE,141,1.0,1.0,56,0.00,,,0.00,Wunderground v.1.13,2013-05-06 15:40:00,
2013-05-06 11:50:00,63.1,47.6,30.21,SE,141,1.0,2.0,57,0.00,,,0.00,Wunderground v.1.13,2013-05-06 15:50:00,
2013-05-06 11:55:00,62.7,47.7,30.21,WSW,243,1.0,1.0,58,0.00,,,0.00,Wunderground v.1.13,2013-05-06 15:55:00,
2013-05-06 12:00:00,62.6,47.6,30.20,WSW,243,0.0,1.0,58,0.00,,,0.00,Wunderground v.1.13,2013-05-06 16:00:00,
2013-05-06 12:10:00,62.9,47.9,30.20,SSW,200,1.0,1.0,58,0.00,,,0.00,Wunderground v.1.13,2013-05-06 16:10:00,
2013-05-06 12:15:00,63.2,47.7,30.20,NNE,13,1.0,1.0,57,0.00,,,0.00,Wunderground v.1.13,2013-05-06 16:15:00,
2013-05-06 12:20:00,64.0,48.5,30.20,NNE,13,0.0,0.0,57,0.00,,,0.00,Wunderground v.1.13,2013-05-06 16:20:00,
2013-05-06 12:30:00,63.9,48.4,30.20,SE,137,2.0,5.0,57,0.00,,,0.00,Wunderground v.1.13,2013-05-06 16:30:00,
2013-05-06 12:35:00,64.0,49.4,30.20,SSW,192,1.0,1.0,59,0.00,,,0.00,Wunderground v.1.13,2013-05-06 16:35:00,
2013-05-06 12:40:00,64.2,48.6,30.20,ESE,121,1.0,1.0,57,0.00,,,0.00,Wunderground v.1.13,2013-05-06 16:40:00,
2013-05-06 12:45:00,64.5,48.9,30.18,SSW,198,1.0,3.0,57,0.00,,,0.00,Wunderground v.1.13,2013-05-06 16:45:00,
2013-05-06 12:55:00,64.7,50.0,30.18,East,92,1.0,1.0,59,0.00,,,0.00,Wunderground v.1.13,2013-05-06 16:55:00,
2013-05-06 13:00:00,65.2,49.1,30.18,SE,134,1.0,1.0,56,0.00,,,0.00,Wunderground v.1.13,2013-05-06 17:00:00,
2013-05-06 13:10:00,65.8,48.2,30.18,SE,124,1.0,1.0,53,0.00,,,0.00,Wunderground v.1.13,2013-05-06 17:10:00,
2013-05-06 13:15:00,65.8,48.7,30.18,South,178,1.0,1.0,54,0.00,,,0.00,Wunderground v.1.13,2013-05-06 17:15:00,
2013-05-06 13:20:00,66.0,49.4,30.18,ENE,61,1.0,1.0,55,0.00,,,0.00,Wunderground v.1.13,2013-05-06 17:20:00,
2013-05-06 13:30:00,66.6,48.9,30.18,South,169,1.0,1.0,53,0.00,,,0.00,Wunderground v.1.13,2013-05-06 17:30:00,
2013-05-06 13:35:00,66.9,49.7,30.17,SSW,203,1.0,1.0,54,0.00,,,0.00,Wunderground v.1.13,2013-05-06 17:35:00,
2013-05-06 13:45:00,66.6,48.9,30.17,SE,137,2.0,7.0,53,0.00,,,0.00,Wunderground v.1.13,2013-05-06 17:45:00,
2013-05-06 13:50:00,66.6,49.4,30.17,SSW,203,2.0,10.0,54,0.00,,,0.00,Wunderground v.1.13,2013-05-06 17:50:00,
2013-05-06 13:55:00,66.9,48.7,30.17,SE,135,2.0,10.0,52,0.00,,,0.00,Wunderground v.1.13,2013-05-06 17:55:00,
2013-05-06 14:00:00,66.9,48.7,30.17,SE,135,2.0,10.0,52,0.00,,,0.00,Wunderground v.1.13,2013-05-06 18:00:00,
2013-05-06 14:05:00,66.9,48.7,30.17,SE,135,2.0,10.0,52,0.00,,,0.00,Wunderground v.1.13,2013-05-06 18:05:00,
2013-05-06 14:10:00,67.4,49.2,30.16,SSE,158,1.0,6.0,52,0.00,,,0.00,Wunderground v.1.13,2013-05-06 18:10:00,
2013-05-06 14:15:00,67.4,49.2,30.16,SSE,158,1.0,6.0,52,0.00,,,0.00,Wunderground v.1.13,2013-05-06 18:15:00,
2013-05-06 14:20:00,67.4,49.2,30.16,SSE,158,1.0,6.0,52,0.00,,,0.00,Wunderground v.1.13,2013-05-06 18:20:00,
2013-05-06 14:25:00,67.4,49.2,30.15,South,180,1.0,8.0,52,0.00,,,0.00,Wunderground v.1.13,2013-05-06 18:25:00,
2013-05-06 14:30:00,67.4,49.2,30.15,South,180,1.0,8.0,52,0.00,,,0.00,Wunderground v.1.13,2013-05-06 18:30:00,
2013-05-06 14:45:00,68.4,49.6,30.15,South,178,1.0,1.0,51,0.00,,,0.00,Wunderground v.1.13,2013-05-06 18:45:00,
2013-05-06 14:50:00,68.8,49.4,30.15,SSW,195,1.0,1.0,50,0.00,,,0.00,Wunderground v.1.13,2013-05-06 18:50:00,
2013-05-06 14:55:00,68.6,49.7,30.15,South,189,1.0,7.0,51,0.00,,,0.00,Wunderground v.1.13,2013-05-06 18:55:00,
2013-05-06 15:00:00,68.1,49.3,30.15,WSW,254,1.0,1.0,51,0.00,,,0.00,Wunderground v.1.13,2013-05-06 19:00:00,
2013-05-06 15:05:00,68.4,49.0,30.15,WSW,241,2.0,2.0,50,0.00,,,0.00,Wunderground v.1.13,2013-05-06 19:05:00,
2013-05-06 15:10:00,68.3,50.0,30.15,SSE,160,2.0,2.0,52,0.00,,,0.00,Wunderground v.1.13,2013-05-06 19:10:00,
2013-05-06 15:15:00,68.4,49.6,30.14,SSE,162,1.0,3.0,51,0.00,,,0.00,Wunderground v.1.13,2013-05-06 19:15:00,
2013-05-06 15:25:00,68.9,50.0,30.14,South,172,2.0,2.0,51,0.00,,,0.00,Wunderground v.1.13,2013-05-06 19:25:00,
2013-05-06 15:30:00,69.4,49.4,30.13,SE,141,1.0,2.0,49,0.00,,,0.00,Wunderground v.1.13,2013-05-06 19:30:00,
2013-05-06 15:35:00,69.9,49.9,30.13,East,99,1.0,1.0,49,0.00,,,0.00,Wunderground v.1.13,2013-05-06 19:35:00,
2013-05-06 15:40:00,69.9,50.4,30.13,SSW,192,1.0,5.0,50,0.00,,,0.00,Wunderground v.1.13,2013-05-06 19:40:00,
2013-05-06 15:50:00,69.1,50.2,30.13,SE,128,2.0,2.0,51,0.00,,,0.00,Wunderground v.1.13,2013-05-06 19:50:00,
2013-05-06 15:55:00,69.1,50.7,30.13,SE,128,2.0,8.0,52,0.00,,,0.00,Wunderground v.1.13,2013-05-06 19:55:00,
2013-05-06 16:00:00,68.9,51.1,30.13,SSE,158,2.0,2.0,53,0.00,,,0.00,Wunderground v.1.13,2013-05-06 20:00:00,
2013-05-06 16:10:00,68.9,51.1,30.13,ESE,123,2.0,5.0,53,0.00,,,0.00,Wunderground v.1.13,2013-05-06 20:10:00,
2013-05-06 16:20:00,69.1,51.2,30.12,East,99,1.0,1.0,53,0.00,,,0.00,Wunderground v.1.13,2013-05-06 20:20:00,
2013-05-06 16:25:00,69.6,50.7,30.12,SSE,160,1.0,1.0,51,0.00,,,0.00,Wunderground v.1.13,2013-05-06 20:25:00,
2013-05-06 16:35:00,69.6,50.1,30.12,SSW,212,1.0,1.0,50,0.00,,,0.00,Wunderground v.1.13,2013-05-06 20:35:00,
2013-05-06 16:40:00,69.4,50.5,30.12,South,176,1.0,3.0,51,0.00,,,0.00,Wunderground v.1.13,2013-05-06 20:40:00,
2013-05-06 16:45:00,68.9,50.5,30.12,SE,138,1.0,7.0,52,0.00,,,0.00,Wunderground v.1.13,2013-05-06 20:45:00,
2013-05-06 16:55:00,68.6,50.8,30.12,NE,48,2.0,2.0,53,0.00,,,0.00,Wunderground v.1.13,2013-05-06 20:55:00,
2013-05-06 17:00:00,69.1,50.7,30.11,SSE,155,1.0,1.0,52,0.00,,,0.00,Wunderground v.1.13,2013-05-06 21:00:00,
2013-05-06 17:05:00,68.8,50.5,30.11,SSW,203,1.0,2.0,52,0.00,,,0.00,Wunderground v.1.13,2013-05-06 21:05:00,
2013-05-06 17:10:00,68.4,50.6,30.11,SSE,161,1.0,1.0,53,0.00,,,0.00,Wunderground v.1.13,2013-05-06 21:10:00,
2013-05-06 17:20:00,68.6,50.8,30.11,SSE,147,1.0,1.0,53,0.00,,,0.00,Wunderground v.1.13,2013-05-06 21:20:00,
2013-05-06 17:25:00,68.8,51.0,30.11,East,82,1.0,1.0,53,0.00,,,0.00,Wunderground v.1.13,2013-05-06 21:25:00,
2013-05-06 17:30:00,68.9,51.1,30.11,SSE,155,1.0,1.0,53,0.00,,,0.00,Wunderground v.1.13,2013-05-06 21:30:00,
2013-05-06 17:40:00,68.3,51.0,30.11,SSW,198,1.0,1.0,54,0.00,,,0.00,Wunderground v.1.13,2013-05-06 21:40:00,
2013-05-06 17:45:00,68.1,50.8,30.11,South,174,1.0,1.0,54,0.00,,,0.00,Wunderground v.1.13,2013-05-06 21:45:00,
2013-05-06 17:55:00,67.9,50.6,30.11,ESE,120,1.0,3.0,54,0.00,,,0.00,Wunderground v.1.13,2013-05-06 21:55:00,
2013-05-06 18:00:00,67.6,50.9,30.11,SE,138,3.0,6.0,55,0.00,,,0.00,Wunderground v.1.13,2013-05-06 22:00:00,
2013-05-06 18:05:00,67.1,51.4,30.11,SSE,151,3.0,3.0,57,0.00,,,0.00,Wunderground v.1.13,2013-05-06 22:05:00,
2013-05-06 18:10:00,66.9,51.2,30.11,ENE,69,2.0,2.0,57,0.00,,,0.00,Wunderground v.1.13,2013-05-06 22:10:00,
2013-05-06 18:15:00,66.6,51.4,30.11,SE,144,2.0,2.0,58,0.00,,,0.00,Wunderground v.1.13,2013-05-06 22:15:00,
2013-05-06 18:25:00,65.8,50.6,30.11,ESE,120,2.0,2.0,58,0.00,,,0.00,Wunderground v.1.13,2013-05-06 22:25:00,
2013-05-06 18:30:00,65.6,50.4,30.11,SSE,152,3.0,3.0,58,0.00,,,0.00,Wunderground v.1.13,2013-05-06 22:30:00,
2013-05-06 18:40:00,65.5,50.3,30.11,SE,130,1.0,1.0,58,0.00,,,0.00,Wunderground v.1.13,2013-05-06 22:40:00,
2013-05-06 18:45:00,65.2,50.5,30.12,ESE,123,1.0,1.0,59,0.00,,,0.00,Wunderground v.1.13,2013-05-06 22:45:00,
2013-05-06 18:50:00,64.7,50.5,30.12,SE,141,2.0,2.0,60,0.00,,,0.00,Wunderground v.1.13,2013-05-06 22:50:00,
2013-05-06 18:55:00,64.2,50.0,30.12,SE,124,2.0,2.0,60,0.00,,,0.00,Wunderground v.1.13,2013-05-06 22:55:00,
2013-05-06 19:00:00,63.9,50.2,30.12,SSE,147,2.0,2.0,61,0.00,,,0.00,Wunderground v.1.13,2013-05-06 23:00:00,
2013-05-06 19:10:00,63.2,49.5,30.12,ESE,119,1.0,1.0,61,0.00,,,0.00,Wunderground v.1.13,2013-05-06 23:10:00,
2013-05-06 19:15:00,63.1,49.4,30.12,SSE,150,1.0,1.0,61,0.00,,,0.00,Wunderground v.1.13,2013-05-06 23:15:00,
2013-05-06 19:20:00,62.9,49.2,30.12,SSE,150,1.0,1.0,61,0.00,,,0.00,Wunderground v.1.13,2013-05-06 23:20:00,
2013-05-06 19:25:00,62.7,49.1,30.12,SSE,154,1.0,1.0,61,0.00,,,0.00,Wunderground v.1.13,2013-05-06 23:25:00,
2013-05-06 19:35:00,62.4,49.2,30.12,SSE,151,0.0,0.0,62,0.00,,,0.00,Wunderground v.1.13,2013-05-06 23:35:00,
2013-05-06 19:40:00,62.3,49.5,30.12,SSE,151,0.0,0.0,63,0.00,,,0.00,Wunderground v.1.13,2013-05-06 23:40:00,
2013-05-06 19:45:00,62.1,49.4,30.13,SSE,151,0.0,0.0,63,0.00,,,0.00,Wunderground v.1.13,2013-05-06 23:45:00,
2013-05-06 19:50:00,61.8,49.1,30.13,SE,145,0.0,0.0,63,0.00,,,0.00,Wunderground v.1.13,2013-05-06 23:50:00,
2013-05-06 20:00:00,61.3,49.0,30.13,SE,145,0.0,0.0,64,0.00,,,0.00,Wunderground v.1.13,2013-05-07 00:00:00,
2013-05-06 20:05:00,61.0,48.7,30.13,SE,145,0.0,0.0,64,0.00,,,0.00,Wunderground v.1.13,2013-05-07 00:05:00,
2013-05-06 20:15:00,60.7,48.9,30.13,SE,145,0.0,0.0,65,0.00,,,0.00,Wunderground v.1.13,2013-05-07 00:15:00,
2013-05-06 20:25:00,60.2,48.8,30.13,SE,145,0.0,0.0,66,0.00,,,0.00,Wunderground v.1.13,2013-05-07 00:25:00,
2013-05-06 20:30:00,60.1,48.7,30.13,SE,145,0.0,0.0,66,0.00,,,0.00,Wunderground v.1.13,2013-05-07 00:30:00,
2013-05-06 20:40:00,59.6,49.0,30.13,SE,145,0.0,0.0,68,0.00,,,0.00,Wunderground v.1.13,2013-05-07 00:40:00,
2013-05-06 20:50:00,58.9,48.7,30.14,SE,145,0.0,0.0,69,0.00,,,0.00,Wunderground v.1.13,2013-05-07 00:50:00,
2013-05-06 20:55:00,58.6,48.8,30.14,SE,145,0.0,0.0,70,0.00,,,0.00,Wunderground v.1.13,2013-05-07 00:55:00,
2013-05-06 21:05:00,58.0,49.0,30.14,SE,145,0.0,0.0,72,0.00,,,0.00,Wunderground v.1.13,2013-05-07 01:05:00,
2013-05-06 21:15:00,57.3,48.7,30.14,SE,145,0.0,0.0,73,0.00,,,0.00,Wunderground v.1.13,2013-05-07 01:15:00,
2013-05-06 21:25:00,56.7,48.5,30.14,SE,145,0.0,0.0,74,0.00,,,0.00,Wunderground v.1.13,2013-05-07 01:25:00,
2013-05-06 21:30:00,56.5,48.7,30.14,SE,145,0.0,0.0,75,0.00,,,0.00,Wunderground v.1.13,2013-05-07 01:30:00,
2013-05-06 21:35:00,56.3,48.5,30.15,SE,145,0.0,0.0,75,0.00,,,0.00,Wunderground v.1.13,2013-05-07 01:35:00,
2013-05-06 21:40:00,56.2,48.7,30.15,SE,145,0.0,0.0,76,0.00,,,0.00,Wunderground v.1.13,2013-05-07 01:40:00,
2013-05-06 21:45:00,55.9,48.4,30.15,SE,145,0.0,0.0,76,0.00,,,0.00,Wunderground v.1.13,2013-05-07 01:45:00,
2013-05-06 21:55:00,55.6,48.5,30.15,SE,145,0.0,0.0,77,0.00,,,0.00,Wunderground v.1.13,2013-05-07 01:55:00,
2013-05-06 22:00:00,55.4,48.3,30.15,SE,145,0.0,0.0,77,0.00,,,0.00,Wunderground v.1.13,2013-05-07 02:00:00,
2013-05-06 22:05:00,55.3,48.6,30.15,SE,145,0.0,0.0,78,0.00,,,0.00,Wunderground v.1.13,2013-05-07 02:05:00,
2013-05-06 22:15:00,55.0,48.3,30.15,SE,145,0.0,0.0,78,0.00,,,0.00,Wunderground v.1.13,2013-05-07 02:15:00,
2013-05-06 22:20:00,55.0,48.3,30.15,SE,145,0.0,0.0,78,0.00,,,0.00,Wunderground v.1.13,2013-05-07 02:20:00,
2013-05-06 22:25:00,54.8,48.1,30.15,SE,145,0.0,0.0,78,0.00,,,0.00,Wunderground v.1.13,2013-05-07 02:25:00,
2013-05-06 22:30:00,54.8,48.4,30.15,SE,145,0.0,0.0,79,0.00,,,0.00,Wunderground v.1.13,2013-05-07 02:30:00,
2013-05-06 22:40:00,54.8,48.4,30.15,SE,145,0.0,0.0,79,0.00,,,0.00,Wunderground v.1.13,2013-05-07 02:40:00,
2013-05-06 22:45:00,54.7,48.3,30.15,SE,145,0.0,0.0,79,0.00,,,0.00,Wunderground v.1.13,2013-05-07 02:45:00,
2013-05-06 22:50:00,54.5,48.1,30.15,SE,145,0.0,0.0,79,0.00,,,0.00,Wunderground v.1.13,2013-05-07 02:50:00,
2013-05-06 22:55:00,54.4,48.0,30.15,SE,145,0.0,0.0,79,0.00,,,0.00,Wunderground v.1.13,2013-05-07 02:55:00,
2013-05-06 23:05:00,53.9,47.9,30.14,SE,145,0.0,0.0,80,0.00,,,0.00,Wunderground v.1.13,2013-05-07 03:05:00,
2013-05-06 23:10:00,53.8,48.1,30.14,SE,145,0.0,0.0,81,0.00,,,0.00,Wunderground v.1.13,2013-05-07 03:10:00,
2013-05-06 23:15:00,53.5,47.8,30.14,SE,145,0.0,0.0,81,0.00,,,0.00,Wunderground v.1.13,2013-05-07 03:15:00,
2013-05-06 23:25:00,53.2,47.8,30.14,SE,145,0.0,0.0,82,0.00,,,0.00,Wunderground v.1.13,2013-05-07 03:25:00,
2013-05-06 23:30:00,53.1,48.1,30.14,SE,145,0.0,0.0,83,0.00,,,0.00,Wunderground v.1.13,2013-05-07 03:30:00,
2013-05-06 23:35:00,52.8,47.8,30.13,SE,145,0.0,0.0,83,0.00,,,0.00,Wunderground v.1.13,2013-05-07 03:35:00,
2013-05-06 23:40:00,52.6,47.6,30.13,SE,145,0.0,0.0,83,0.00,,,0.00,Wunderground v.1.13,2013-05-07 03:40:00,
2013-05-06 23:50:00,52.2,47.5,30.14,SE,145,0.0,0.0,84,0.00,,,0.00,Wunderground v.1.13,2013-05-07 03:50:00,
2013-05-06 23:55:00,52.0,47.3,30.14,SE,145,0.0,0.0,84,0.00,,,0.00,Wunderground v.1.13,2013-05-07 03:55:00,